createdAt,value
2018-07-31T00:00:44.484Z,8.50
2018-07-31T00:01:44.443Z,8.90
2018-07-31T00:02:44.437Z,9.60
2018-07-31T00:03:47.217Z,9.10
2018-07-31T00:04:44.411Z,7.60
2018-07-31T00:05:44.397Z,8.10
2018-07-31T00:06:44.401Z,8.00
2018-07-31T00:07:45.208Z,8.20
2018-07-31T00:08:45.364Z,7.60
2018-07-31T00:09:44.363Z,8.00
2018-07-31T00:10:44.351Z,9.10
2018-07-31T00:11:44.340Z,8.20
2018-07-31T00:12:44.323Z,8.30
2018-07-31T00:13:44.341Z,7.40
2018-07-31T00:14:44.301Z,8.50
2018-07-31T00:15:44.286Z,8.60
2018-07-31T00:16:44.273Z,8.10
2018-07-31T00:17:45.629Z,7.20
2018-07-31T00:18:45.486Z,7.40
2018-07-31T00:19:47.022Z,7.30
2018-07-31T00:20:45.818Z,7.10
2018-07-31T00:21:46.180Z,9.00
2018-07-31T00:22:47.663Z,8.20
2018-07-31T00:23:45.470Z,7.00
2018-07-31T00:24:45.607Z,8.30
2018-07-31T00:25:46.118Z,7.30
2018-07-31T00:26:44.192Z,7.50
2018-07-31T00:27:45.562Z,7.10
2018-07-31T00:28:45.407Z,6.50
2018-07-31T00:29:45.540Z,6.90
2018-07-31T00:30:45.368Z,7.00
2018-07-31T00:31:47.228Z,6.70
2018-07-31T00:32:45.305Z,7.40
2018-07-31T00:33:44.093Z,8.20
2018-07-31T00:34:44.085Z,7.80
2018-07-31T00:35:44.078Z,7.30
2018-07-31T00:36:44.076Z,7.30
2018-07-31T00:37:44.080Z,7.50
2018-07-31T00:38:44.048Z,7.70
2018-07-31T00:39:44.718Z,8.80
2018-07-31T00:40:44.719Z,7.60
2018-07-31T00:41:45.022Z,7.90
2018-07-31T00:42:44.013Z,8.70
2018-07-31T00:43:44.018Z,8.90
2018-07-31T00:44:43.986Z,8.70
2018-07-31T00:45:43.967Z,8.50
2018-07-31T00:46:43.954Z,8.20
2018-07-31T00:47:43.943Z,8.30
2018-07-31T00:48:43.932Z,7.90
2018-07-31T00:49:43.959Z,7.60
2018-07-31T00:50:43.910Z,8.00
2018-07-31T00:51:43.902Z,10.00
2018-07-31T00:52:43.892Z,8.80
2018-07-31T00:53:44.731Z,9.00
2018-07-31T00:54:43.874Z,8.70
2018-07-31T00:55:43.902Z,8.50
2018-07-31T00:56:43.850Z,9.70
2018-07-31T00:57:43.850Z,11.20
2018-07-31T00:58:43.877Z,9.40
2018-07-31T00:59:43.820Z,9.70
2018-07-31T01:00:43.803Z,9.20
2018-07-31T01:01:43.822Z,9.00
2018-07-31T01:02:43.790Z,9.00
2018-07-31T01:03:43.777Z,9.60
2018-07-31T01:04:43.765Z,8.90
2018-07-31T01:05:43.762Z,9.10
2018-07-31T01:06:44.786Z,8.90
2018-07-31T01:07:43.733Z,9.00
2018-07-31T01:08:43.720Z,10.40
2018-07-31T01:09:43.708Z,8.90
2018-07-31T01:10:43.694Z,9.50
2018-07-31T01:11:43.686Z,8.60
2018-07-31T01:12:43.712Z,10.00
2018-07-31T01:13:43.665Z,9.20
2018-07-31T01:14:44.237Z,9.80
2018-07-31T01:15:43.642Z,9.90
2018-07-31T01:16:43.651Z,8.70
2018-07-31T01:17:43.859Z,9.00
2018-07-31T01:19:07.400Z,6.60
2018-07-31T01:19:43.759Z,8.00
2018-07-31T01:21:06.302Z,7.50
2018-07-31T01:21:44.591Z,9.10
2018-07-31T01:22:50.237Z,17.50
2018-07-31T01:23:50.306Z,19.70
2018-07-31T01:24:54.341Z,19.30
2018-07-31T01:25:43.542Z,17.80
2018-07-31T01:26:43.530Z,15.50
2018-07-31T01:27:47.225Z,9.70
2018-07-31T01:28:44.500Z,9.10
2018-07-31T01:29:43.518Z,7.30
2018-07-31T01:30:45.231Z,13.10
2018-07-31T01:31:44.309Z,7.70
2018-07-31T01:32:44.232Z,10.90
2018-07-31T01:33:44.446Z,10.40
2018-07-31T01:35:05.232Z,14.80
2018-07-31T01:35:44.233Z,7.00
2018-07-31T01:36:44.470Z,7.20
2018-07-31T01:37:43.405Z,6.90
2018-07-31T01:38:44.229Z,8.40
2018-07-31T01:39:43.382Z,8.10
2018-07-31T01:40:45.262Z,15.20
2018-07-31T02:30:28.789Z,8.60
2018-07-31T02:31:21.661Z,9.20
2018-07-31T02:32:21.656Z,10.30
2018-07-31T02:33:21.639Z,9.30
2018-07-31T02:35:33.083Z,11.70
2018-07-31T02:36:31.473Z,9.20
2018-07-31T02:37:32.077Z,10.10
2018-07-31T02:38:31.453Z,10.20
2018-07-31T02:39:31.444Z,12.50
2018-07-31T02:40:31.427Z,10.80
2018-07-31T02:41:34.080Z,9.20
2018-07-31T02:42:31.424Z,9.50
2018-07-31T02:43:32.126Z,10.30
2018-07-31T02:44:33.461Z,9.30
2018-07-31T02:45:34.125Z,9.00
2018-07-31T02:46:31.370Z,9.20
2018-07-31T02:47:34.078Z,9.20
2018-07-31T02:48:31.355Z,8.70
2018-07-31T02:49:31.333Z,8.00
2018-07-31T02:50:32.088Z,8.00
2018-07-31T02:51:32.306Z,7.90
2018-07-31T02:52:31.309Z,11.10
2018-07-31T02:56:06.124Z,13.20
2018-07-31T02:57:06.111Z,9.10
2018-07-31T02:58:11.079Z,8.90
2018-07-31T02:59:06.102Z,8.50
2018-07-31T03:00:06.086Z,7.30
2018-07-31T03:01:06.071Z,8.40
2018-07-31T03:02:06.086Z,8.70
2018-07-31T03:03:06.053Z,9.70
2018-07-31T03:04:06.040Z,8.30
2018-07-31T03:05:06.025Z,9.30
2018-07-31T03:06:06.008Z,9.10
2018-07-31T03:07:06.031Z,8.80
2018-07-31T03:08:07.025Z,8.50
2018-07-31T03:09:06.507Z,8.00
2018-07-31T03:10:06.022Z,9.60
2018-07-31T03:11:05.973Z,9.50
2018-07-31T03:12:05.982Z,12.20
2018-07-31T03:13:06.501Z,9.10
2018-07-31T03:14:06.495Z,10.60
2018-07-31T03:15:05.923Z,10.80
2018-07-31T03:16:06.005Z,14.40
2018-07-31T03:17:05.896Z,12.70
2018-07-31T03:18:05.883Z,14.30
2018-07-31T03:19:07.036Z,14.30
2018-07-31T03:20:05.899Z,14.20
2018-07-31T03:21:11.569Z,15.20
2018-07-31T03:22:05.839Z,14.10
2018-07-31T03:23:05.865Z,15.70
2018-07-31T03:24:06.493Z,15.40
2018-07-31T03:25:05.821Z,14.70
2018-07-31T03:26:28.820Z,15.00
2018-07-31T03:27:06.508Z,14.80
2018-07-31T03:28:05.827Z,14.80
2018-07-31T03:29:09.523Z,15.30
2018-07-31T03:30:05.752Z,14.30
2018-07-31T03:31:07.528Z,14.50
2018-07-31T03:32:07.502Z,12.90
2018-07-31T03:35:34.905Z,14.20
2018-07-31T03:36:35.414Z,13.10
2018-07-31T03:37:34.861Z,12.60
2018-07-31T03:38:34.849Z,13.40
2018-07-31T03:39:34.838Z,13.50
2018-07-31T03:40:34.841Z,11.30
2018-07-31T03:41:37.472Z,12.30
2018-07-31T03:42:34.803Z,12.00
2018-07-31T03:43:35.420Z,11.80
2018-07-31T03:44:34.783Z,11.70
2018-07-31T03:46:27.336Z,11.60
2018-07-31T03:47:26.780Z,10.30
2018-07-31T03:48:26.773Z,9.90
2018-07-31T03:49:26.793Z,10.80
2018-07-31T03:50:30.341Z,10.40
2018-07-31T03:51:26.734Z,11.20
2018-07-31T03:52:28.842Z,11.30
2018-07-31T03:53:26.709Z,10.60
2018-07-31T03:54:26.706Z,9.20
2018-07-31T03:55:26.726Z,11.70
2018-07-31T03:56:26.766Z,9.60
2018-07-31T03:57:28.356Z,9.50
2018-07-31T03:58:26.651Z,9.30
2018-07-31T03:59:27.333Z,9.60
2018-07-31T04:00:27.626Z,8.80
2018-07-31T04:01:26.622Z,10.60
2018-07-31T04:02:31.345Z,9.70
2018-07-31T04:03:27.341Z,10.10
2018-07-31T04:04:26.585Z,11.80
2018-07-31T04:05:27.388Z,10.40
2018-07-31T04:06:28.344Z,12.90
2018-07-31T04:07:27.858Z,9.60
2018-07-31T04:08:26.545Z,10.50
2018-07-31T04:10:35.381Z,9.70
2018-07-31T04:11:35.371Z,9.50
2018-07-31T04:12:35.393Z,10.20
2018-07-31T04:13:35.355Z,9.80
2018-07-31T04:14:35.989Z,11.60
2018-07-31T04:15:35.355Z,9.70
2018-07-31T04:16:37.014Z,9.80
2018-07-31T04:17:39.477Z,10.00
2018-07-31T04:18:35.299Z,9.60
2018-07-31T04:19:35.286Z,9.70
2018-07-31T04:20:35.279Z,8.80
2018-07-31T04:21:35.261Z,9.30
2018-07-31T04:22:36.059Z,8.40
2018-07-31T04:23:54.532Z,9.90
2018-07-31T04:24:35.383Z,8.10
2018-07-31T04:25:35.992Z,8.50
2018-07-31T04:26:35.989Z,10.40
2018-07-31T04:27:35.979Z,8.20
2018-07-31T04:28:40.982Z,8.80
2018-07-31T04:29:35.193Z,8.30
2018-07-31T09:26:15.492Z,5.50
2018-07-31T09:27:15.431Z,6.10
2018-07-31T09:28:15.420Z,6.10
2018-07-31T09:29:15.413Z,6.20
2018-07-31T09:30:16.079Z,6.00
2018-07-31T09:31:15.401Z,6.40
2018-07-31T09:32:16.048Z,6.80
2018-07-31T09:33:15.381Z,6.50
2018-07-31T09:34:15.417Z,6.80
2018-07-31T09:35:15.384Z,6.90
2018-07-31T09:36:16.051Z,6.90
2018-07-31T09:37:23.779Z,6.60
2018-07-31T09:38:16.059Z,6.40
2018-07-31T09:39:15.314Z,6.40
2018-07-31T09:40:15.316Z,6.90
2018-07-31T09:41:15.347Z,6.70
2018-07-31T09:42:15.701Z,6.90
2018-07-31T09:43:16.563Z,6.70
2018-07-31T09:44:15.298Z,6.80
2018-07-31T09:45:15.264Z,6.90
2018-07-31T09:46:15.256Z,6.70
2018-07-31T09:47:15.240Z,6.40
2018-07-31T09:48:16.059Z,7.00
2018-07-31T09:49:15.260Z,7.10
2018-07-31T09:50:15.257Z,7.20
2018-07-31T09:51:15.242Z,6.60
2018-07-31T09:52:15.183Z,6.60
2018-07-31T09:53:15.172Z,6.90
2018-07-31T09:54:15.172Z,6.70
2018-07-31T09:55:15.149Z,7.00
2018-07-31T09:56:15.344Z,7.10
2018-07-31T09:57:15.170Z,7.20
2018-07-31T09:58:15.120Z,6.80
2018-07-31T09:59:15.189Z,6.90
2018-07-31T10:00:16.056Z,7.10
2018-07-31T10:01:15.134Z,6.90
2018-07-31T10:02:15.462Z,6.70
2018-07-31T10:03:16.055Z,6.90
2018-07-31T10:04:15.062Z,6.50
2018-07-31T10:05:15.100Z,6.50
2018-07-31T10:06:15.089Z,6.40
2018-07-31T10:07:15.057Z,6.40
2018-07-31T10:08:15.068Z,7.80
2018-07-31T10:09:15.092Z,6.90
2018-07-31T10:10:14.988Z,6.40
2018-07-31T10:11:14.997Z,6.00
2018-07-31T10:12:15.133Z,6.30
2018-07-31T10:13:14.984Z,6.70
2018-07-31T10:14:14.957Z,6.20
2018-07-31T10:15:14.941Z,6.40
2018-07-31T10:16:14.925Z,6.80
2018-07-31T10:17:14.934Z,6.10
2018-07-31T10:18:15.097Z,6.00
2018-07-31T10:19:15.182Z,6.00
2018-07-31T10:20:15.701Z,6.60
2018-07-31T10:21:15.089Z,6.10
2018-07-31T10:22:15.055Z,6.10
2018-07-31T10:23:15.795Z,6.80
2018-07-31T10:24:15.864Z,6.30
2018-07-31T10:25:14.866Z,7.40
2018-07-31T10:26:14.841Z,9.00
2018-07-31T10:27:14.851Z,8.00
2018-07-31T10:28:14.811Z,6.40
2018-07-31T10:29:14.795Z,6.50
2018-07-31T10:30:14.822Z,6.50
2018-07-31T10:31:14.809Z,6.20
2018-07-31T10:32:14.770Z,6.80
2018-07-31T10:33:14.786Z,6.90
2018-07-31T10:34:14.736Z,6.50
2018-07-31T10:35:14.752Z,6.50
2018-07-31T10:36:14.734Z,7.70
2018-07-31T10:37:14.769Z,6.60
2018-07-31T10:38:14.731Z,8.80
2018-07-31T10:39:14.706Z,7.20
2018-07-31T10:40:14.696Z,7.60
2018-07-31T10:41:14.667Z,7.90
2018-07-31T10:42:14.673Z,7.30
2018-07-31T10:43:14.713Z,6.90
2018-07-31T10:44:14.651Z,9.70
2018-07-31T10:45:14.626Z,9.20
2018-07-31T10:46:14.616Z,17.50
2018-07-31T10:47:14.611Z,15.50
2018-07-31T10:48:14.587Z,17.70
2018-07-31T10:49:14.599Z,13.00
2018-07-31T10:50:14.600Z,19.50
2018-07-31T10:51:14.559Z,13.50
2018-07-31T10:52:14.616Z,17.40
2018-07-31T10:53:14.538Z,16.60
2018-07-31T10:54:14.517Z,18.80
2018-07-31T10:55:14.525Z,20.10
2018-07-31T10:56:14.498Z,16.80
2018-07-31T10:57:14.501Z,20.70
2018-07-31T10:58:14.610Z,22.40
2018-07-31T10:59:14.467Z,18.90
2018-07-31T11:00:14.482Z,21.80
2018-07-31T11:01:14.466Z,19.20
2018-07-31T11:02:14.446Z,18.80
2018-07-31T11:03:14.466Z,19.50
2018-07-31T11:04:14.475Z,17.30
2018-07-31T11:05:14.418Z,17.80
2018-07-31T11:06:14.469Z,18.40
2018-07-31T11:07:15.085Z,16.10
2018-07-31T11:08:14.426Z,14.50
2018-07-31T11:09:14.416Z,13.10
2018-07-31T11:10:14.375Z,14.90
2018-07-31T11:11:14.357Z,10.90
2018-07-31T11:12:14.363Z,13.00
2018-07-31T11:13:15.149Z,10.60
2018-07-31T11:14:14.311Z,11.70
2018-07-31T11:15:14.309Z,12.70
2018-07-31T11:16:14.288Z,13.50
2018-07-31T11:17:14.282Z,13.30
2018-07-31T11:18:14.671Z,13.10
2018-07-31T11:19:14.269Z,10.40
2018-07-31T11:20:14.252Z,12.60
2018-07-31T11:21:14.261Z,10.70
2018-07-31T11:22:14.239Z,11.10
2018-07-31T11:23:14.272Z,10.10
2018-07-31T11:24:14.278Z,10.20
2018-07-31T11:25:14.210Z,9.20
2018-07-31T11:26:14.186Z,10.00
2018-07-31T11:27:14.178Z,8.10
2018-07-31T11:28:14.172Z,9.80
2018-07-31T11:29:14.153Z,9.40
2018-07-31T11:30:14.159Z,10.70
2018-07-31T11:31:14.148Z,10.20
2018-07-31T11:32:14.124Z,8.60
2018-07-31T11:33:14.109Z,9.00
2018-07-31T11:34:15.094Z,9.10
2018-07-31T11:35:14.101Z,8.50
2018-07-31T11:36:15.097Z,9.20
2018-07-31T11:37:14.073Z,9.20
2018-07-31T11:38:14.066Z,9.30
2018-07-31T11:39:14.062Z,8.40
2018-07-31T11:40:14.037Z,9.70
2018-07-31T11:41:14.033Z,10.40
2018-07-31T11:42:14.115Z,9.70
2018-07-31T11:43:14.021Z,11.90
2018-07-31T11:44:14.018Z,10.80
2018-07-31T11:45:13.980Z,11.10
2018-07-31T11:46:13.983Z,10.80
2018-07-31T11:47:13.959Z,11.10
2018-07-31T11:48:13.957Z,12.40
2018-07-31T11:49:13.951Z,11.30
2018-07-31T11:50:13.981Z,11.30
2018-07-31T11:51:13.920Z,11.60
2018-07-31T11:52:13.911Z,10.60
2018-07-31T11:53:13.898Z,10.30
2018-07-31T11:54:13.888Z,10.80
2018-07-31T11:55:13.893Z,12.80
2018-07-31T11:56:13.895Z,11.10
2018-07-31T11:57:13.860Z,10.50
2018-07-31T11:58:13.852Z,10.00
2018-07-31T11:59:13.859Z,12.00
2018-07-31T12:00:14.974Z,10.00
2018-07-31T12:01:14.854Z,9.70
2018-07-31T12:02:13.801Z,9.90
2018-07-31T12:03:13.791Z,9.80
2018-07-31T12:04:13.849Z,10.60
2018-07-31T12:05:13.777Z,10.00
2018-07-31T12:06:13.760Z,10.40
2018-07-31T12:07:13.769Z,9.30
2018-07-31T12:08:13.773Z,9.70
2018-07-31T12:09:13.747Z,9.60
2018-07-31T12:10:13.751Z,9.70
2018-07-31T12:11:13.719Z,9.40
2018-07-31T12:12:13.697Z,9.10
2018-07-31T12:13:14.013Z,8.90
2018-07-31T12:14:13.709Z,9.10
2018-07-31T12:15:13.666Z,9.60
2018-07-31T12:16:13.667Z,8.70
2018-07-31T12:17:13.639Z,8.80
2018-07-31T12:18:13.636Z,9.10
2018-07-31T12:19:13.648Z,8.80
2018-07-31T12:20:13.627Z,8.70
2018-07-31T12:21:13.623Z,8.20
2018-07-31T12:22:14.660Z,8.50
2018-07-31T12:23:13.588Z,8.90
2018-07-31T12:24:13.577Z,8.20
2018-07-31T12:25:13.585Z,8.40
2018-07-31T12:26:19.163Z,8.60
2018-07-31T12:27:13.548Z,8.50
2018-07-31T12:28:13.527Z,7.30
2018-07-31T12:29:13.514Z,8.30
2018-07-31T12:30:13.508Z,8.10
2018-07-31T12:31:13.516Z,8.00
2018-07-31T12:32:14.096Z,8.10
2018-07-31T12:33:13.617Z,8.30
2018-07-31T12:34:13.460Z,8.20
2018-07-31T12:35:13.459Z,8.30
2018-07-31T12:36:13.449Z,7.50
2018-07-31T12:37:13.573Z,7.80
2018-07-31T12:38:13.486Z,7.80
2018-07-31T12:39:13.488Z,7.50
2018-07-31T12:40:13.404Z,7.90
2018-07-31T12:41:13.471Z,8.40
2018-07-31T12:42:13.398Z,7.80
2018-07-31T12:43:13.431Z,7.80
2018-07-31T12:44:13.392Z,7.40
2018-07-31T12:45:13.370Z,8.00
2018-07-31T12:46:13.360Z,7.60
2018-07-31T12:47:13.337Z,7.70
2018-07-31T12:48:13.333Z,7.70
2018-07-31T12:49:13.330Z,7.80
2018-07-31T12:50:13.452Z,7.90
2018-07-31T12:51:13.280Z,7.90
2018-07-31T12:52:13.273Z,7.50
2018-07-31T12:53:13.276Z,8.10
2018-07-31T12:54:13.286Z,7.50
2018-07-31T12:55:13.257Z,7.60
2018-07-31T12:56:13.260Z,7.90
2018-07-31T12:57:13.236Z,7.30
2018-07-31T12:58:13.218Z,7.80
2018-07-31T12:59:14.132Z,7.90
2018-07-31T13:00:13.194Z,7.70
2018-07-31T13:01:13.180Z,8.20
2018-07-31T13:02:13.206Z,8.30
2018-07-31T13:03:13.155Z,7.80
2018-07-31T13:04:13.140Z,8.00
2018-07-31T13:05:13.133Z,7.90
2018-07-31T13:06:13.120Z,7.40
2018-07-31T13:07:13.110Z,7.90
2018-07-31T13:08:13.136Z,8.30
2018-07-31T13:09:13.087Z,7.80
2018-07-31T13:10:13.085Z,7.70
2018-07-31T13:11:13.075Z,7.60
2018-07-31T13:12:13.070Z,7.60
2018-07-31T13:13:14.111Z,7.60
2018-07-31T13:14:13.047Z,7.80
2018-07-31T13:15:13.025Z,8.30
2018-07-31T13:16:13.030Z,7.40
2018-07-31T13:17:13.034Z,7.90
2018-07-31T13:18:12.996Z,8.00
2018-07-31T13:19:13.010Z,7.40
2018-07-31T13:20:12.973Z,7.40
2018-07-31T13:21:12.963Z,7.50
2018-07-31T13:22:12.952Z,7.30
2018-07-31T13:23:12.941Z,7.20
2018-07-31T13:24:13.693Z,7.10
2018-07-31T13:25:12.968Z,7.40
2018-07-31T13:26:13.605Z,7.40
2018-07-31T13:27:12.901Z,7.10
2018-07-31T13:28:12.887Z,7.10
2018-07-31T13:29:12.877Z,7.40
2018-07-31T13:30:12.869Z,6.80
2018-07-31T13:31:12.891Z,7.40
2018-07-31T13:32:12.861Z,7.00
2018-07-31T13:33:12.857Z,7.00
2018-07-31T13:34:12.823Z,7.20
2018-07-31T13:35:12.815Z,7.40
2018-07-31T13:36:12.824Z,6.70
2018-07-31T13:37:12.854Z,6.80
2018-07-31T13:38:12.786Z,7.10
2018-07-31T13:39:12.797Z,7.00
2018-07-31T13:40:12.763Z,7.00
2018-07-31T13:41:15.576Z,6.70
2018-07-31T13:42:12.738Z,7.10
2018-07-31T13:43:12.738Z,6.90
2018-07-31T13:44:12.826Z,6.70
2018-07-31T13:45:12.711Z,6.90
2018-07-31T13:46:12.697Z,6.70
2018-07-31T13:47:12.693Z,6.80
2018-07-31T13:48:12.758Z,6.90
2018-07-31T13:49:12.669Z,7.20
2018-07-31T13:50:12.652Z,7.10
2018-07-31T13:51:12.675Z,7.10
2018-07-31T13:52:12.637Z,6.30
2018-07-31T13:53:14.808Z,7.00
2018-07-31T13:54:12.713Z,6.70
2018-07-31T13:55:14.229Z,6.70
2018-07-31T13:56:12.654Z,6.70
2018-07-31T13:57:12.709Z,7.30
2018-07-31T13:58:15.109Z,6.60
2018-07-31T13:59:12.557Z,7.20
2018-07-31T14:00:12.563Z,6.70
2018-07-31T14:01:12.536Z,6.90
2018-07-31T14:02:12.697Z,6.40
2018-07-31T14:03:12.520Z,6.40
2018-07-31T14:04:12.576Z,6.80
2018-07-31T14:05:12.495Z,6.70
2018-07-31T14:06:12.495Z,7.30
2018-07-31T14:07:12.476Z,6.30
2018-07-31T14:08:12.473Z,7.00
2018-07-31T14:09:12.453Z,6.60
2018-07-31T14:10:12.449Z,6.90
2018-07-31T14:11:12.464Z,7.00
2018-07-31T14:12:12.426Z,6.30
2018-07-31T14:13:12.421Z,6.60
2018-07-31T14:14:12.398Z,6.20
2018-07-31T14:15:12.389Z,6.60
2018-07-31T14:16:12.377Z,6.60
2018-07-31T14:17:12.403Z,6.30
2018-07-31T14:18:12.405Z,6.20
2018-07-31T14:19:12.356Z,6.50
2018-07-31T14:20:12.337Z,6.50
2018-07-31T14:21:12.328Z,6.80
2018-07-31T14:22:12.321Z,6.70
2018-07-31T14:23:12.346Z,6.50
2018-07-31T14:24:12.319Z,6.30
2018-07-31T14:25:12.282Z,6.50
2018-07-31T14:26:12.273Z,6.70
2018-07-31T14:27:12.276Z,6.40
2018-07-31T14:28:12.256Z,6.90
2018-07-31T14:29:12.269Z,6.60
2018-07-31T14:30:12.270Z,6.60
2018-07-31T14:31:12.227Z,6.70
2018-07-31T14:32:12.211Z,6.90
2018-07-31T14:33:12.205Z,7.30
2018-07-31T14:34:12.202Z,7.10
2018-07-31T14:35:12.217Z,6.70
2018-07-31T14:36:12.173Z,6.40
2018-07-31T14:37:12.157Z,6.50
2018-07-31T14:38:12.146Z,6.50
2018-07-31T14:39:12.137Z,6.70
2018-07-31T14:40:12.133Z,6.30
2018-07-31T14:41:12.127Z,6.80
2018-07-31T14:42:12.111Z,6.40
2018-07-31T14:43:12.090Z,6.60
2018-07-31T14:44:12.096Z,6.00
2018-07-31T14:45:12.083Z,6.70
2018-07-31T14:46:12.074Z,6.60
2018-07-31T14:47:12.050Z,6.30
2018-07-31T14:48:12.065Z,7.00
2018-07-31T14:49:12.030Z,6.20
2018-07-31T14:50:12.020Z,6.90
2018-07-31T14:51:12.011Z,6.60
2018-07-31T14:52:12.015Z,6.90
2018-07-31T14:53:11.994Z,6.70
2018-07-31T14:54:12.024Z,6.90
2018-07-31T14:55:11.970Z,7.60
2018-07-31T14:56:11.951Z,7.00
2018-07-31T14:57:11.953Z,7.20
2018-07-31T14:58:11.953Z,7.30
2018-07-31T14:59:11.928Z,7.10
2018-07-31T15:00:11.912Z,7.40
2018-07-31T15:01:11.900Z,7.30
2018-07-31T15:02:11.906Z,7.40
2018-07-31T15:03:11.915Z,7.40
2018-07-31T15:04:11.878Z,6.90
2018-07-31T15:05:11.877Z,7.20
2018-07-31T15:06:11.848Z,7.10
2018-07-31T15:07:12.362Z,7.50
2018-07-31T15:08:11.844Z,8.50
2018-07-31T15:09:11.848Z,7.70
2018-07-31T15:10:11.823Z,7.60
2018-07-31T15:11:11.922Z,7.40
2018-07-31T15:12:11.789Z,7.00
2018-07-31T15:13:11.809Z,6.60
2018-07-31T15:14:11.781Z,6.30
2018-07-31T15:15:11.762Z,8.20
2018-07-31T15:16:11.750Z,8.40
2018-07-31T15:17:11.738Z,6.60
2018-07-31T15:18:11.744Z,7.50
2018-07-31T15:19:11.895Z,6.40
2018-07-31T15:20:11.723Z,6.90
2018-07-31T15:21:11.819Z,6.60
2018-07-31T15:22:11.686Z,7.80
2018-07-31T15:23:11.670Z,6.80
2018-07-31T15:24:11.679Z,7.60
2018-07-31T15:25:11.693Z,7.00
2018-07-31T15:26:12.659Z,6.30
2018-07-31T15:27:11.634Z,6.90
2018-07-31T15:28:11.796Z,6.50
2018-07-31T15:29:11.607Z,6.80
2018-07-31T15:30:11.597Z,6.70
2018-07-31T15:31:11.623Z,6.80
2018-07-31T15:32:11.573Z,6.30
2018-07-31T15:33:11.572Z,6.60
2018-07-31T15:34:11.562Z,6.30
2018-07-31T15:35:11.564Z,6.60
2018-07-31T15:36:11.534Z,6.90
2018-07-31T15:37:11.555Z,7.30
2018-07-31T15:38:11.512Z,6.10
2018-07-31T15:39:11.534Z,5.90
2018-07-31T15:40:11.496Z,6.50
2018-07-31T15:41:11.501Z,5.70
2018-07-31T15:42:11.474Z,6.40
2018-07-31T15:43:11.474Z,6.10
2018-07-31T15:44:11.442Z,7.00
2018-07-31T15:45:11.444Z,6.20
2018-07-31T15:46:11.476Z,6.50
2018-07-31T15:47:11.418Z,6.10
2018-07-31T15:48:12.264Z,6.10
2018-07-31T15:49:11.409Z,6.20
2018-07-31T15:50:11.382Z,5.70
2018-07-31T15:51:11.409Z,6.10
2018-07-31T15:52:11.401Z,5.90
2018-07-31T15:53:11.363Z,6.30
2018-07-31T15:54:11.343Z,6.50
2018-07-31T15:55:11.345Z,6.00
2018-07-31T15:56:11.328Z,5.80
2018-07-31T15:57:11.308Z,6.10
2018-07-31T15:58:11.359Z,5.80
2018-07-31T15:59:12.155Z,5.90
2018-07-31T16:00:11.287Z,5.70
2018-07-31T16:01:11.275Z,6.10
2018-07-31T16:02:11.255Z,7.80
2018-07-31T16:03:11.257Z,5.80
2018-07-31T16:04:11.270Z,6.40
2018-07-31T16:05:11.226Z,5.80
2018-07-31T16:06:11.218Z,6.00
2018-07-31T16:07:11.202Z,5.90
2018-07-31T16:08:11.195Z,6.10
2018-07-31T16:09:11.180Z,5.70
2018-07-31T16:10:11.280Z,5.80
2018-07-31T16:11:12.178Z,5.70
2018-07-31T16:12:12.255Z,6.00
2018-07-31T16:13:11.136Z,5.40
2018-07-31T16:14:11.137Z,5.70
2018-07-31T16:15:11.117Z,5.70
2018-07-31T16:16:11.156Z,6.00
2018-07-31T16:17:11.104Z,6.40
2018-07-31T16:18:11.093Z,6.10
2018-07-31T16:19:11.071Z,5.80
2018-07-31T16:20:11.076Z,6.10
2018-07-31T16:21:11.059Z,5.60
2018-07-31T16:22:11.061Z,6.30
2018-07-31T16:23:11.080Z,6.00
2018-07-31T16:24:11.029Z,6.00
2018-07-31T16:25:11.012Z,5.90
2018-07-31T16:26:11.007Z,5.80
2018-07-31T16:27:11.015Z,5.80
2018-07-31T16:28:10.985Z,5.90
2018-07-31T16:29:10.974Z,6.30
2018-07-31T16:30:10.972Z,5.50
2018-07-31T16:31:10.952Z,5.80
2018-07-31T16:32:10.963Z,6.20
2018-07-31T16:33:10.959Z,7.50
2018-07-31T16:34:10.930Z,5.70
2018-07-31T16:35:10.910Z,6.00
2018-07-31T16:36:10.901Z,5.90
2018-07-31T16:37:10.926Z,6.10
2018-07-31T16:38:10.875Z,5.80
2018-07-31T16:39:10.904Z,5.90
2018-07-31T16:40:10.866Z,5.50
2018-07-31T16:41:10.846Z,5.70
2018-07-31T16:42:10.833Z,5.80
2018-07-31T16:43:10.821Z,6.30
2018-07-31T16:44:10.812Z,5.60
2018-07-31T16:45:10.869Z,6.10
2018-07-31T16:46:11.654Z,5.60
2018-07-31T16:47:11.663Z,5.70
2018-07-31T16:48:10.780Z,5.90
2018-07-31T16:49:10.799Z,5.80
2018-07-31T16:50:10.767Z,5.50
2018-07-31T16:51:10.747Z,5.80
2018-07-31T16:52:10.724Z,5.80
2018-07-31T16:53:11.658Z,6.10
2018-07-31T16:54:10.718Z,5.80
2018-07-31T16:55:10.701Z,5.90
2018-07-31T16:56:10.713Z,6.00
2018-07-31T16:57:10.675Z,6.80
2018-07-31T16:58:10.659Z,5.90
2018-07-31T16:59:11.650Z,5.50
2018-07-31T17:00:10.656Z,5.60
2018-07-31T17:01:10.639Z,5.90
2018-07-31T17:02:10.653Z,5.80
2018-07-31T17:03:10.613Z,6.00
2018-07-31T17:04:10.599Z,5.90
2018-07-31T17:05:10.594Z,5.40
2018-07-31T17:06:11.608Z,5.60
2018-07-31T17:07:10.565Z,6.70
2018-07-31T17:08:10.611Z,6.20
2018-07-31T17:09:10.546Z,6.50
2018-07-31T17:10:10.532Z,5.90
2018-07-31T17:11:10.570Z,6.00
2018-07-31T17:12:10.519Z,6.10
2018-07-31T17:13:10.503Z,5.80
2018-07-31T17:14:10.523Z,5.70
2018-07-31T17:15:10.486Z,6.00
2018-07-31T17:16:10.470Z,6.20
2018-07-31T17:17:10.475Z,6.20
2018-07-31T17:18:10.456Z,6.30
2018-07-31T17:19:10.437Z,6.00
2018-07-31T17:20:11.170Z,5.80
2018-07-31T17:21:10.430Z,6.20
2018-07-31T17:22:10.407Z,5.60
2018-07-31T17:23:14.202Z,5.70
2018-07-31T17:24:10.382Z,5.60
2018-07-31T17:25:11.282Z,6.00
2018-07-31T17:26:10.566Z,5.80
2018-07-31T17:27:10.374Z,6.20
2018-07-31T17:28:10.352Z,6.60
2018-07-31T17:29:10.350Z,6.00
2018-07-31T17:30:10.416Z,6.60
2018-07-31T17:31:10.320Z,7.70
2018-07-31T17:32:10.340Z,6.20
2018-07-31T17:33:10.299Z,6.50
2018-07-31T17:34:10.285Z,6.80
2018-07-31T17:35:10.303Z,6.50
2018-07-31T17:36:10.259Z,6.10
2018-07-31T17:37:10.259Z,7.30
2018-07-31T17:38:10.271Z,5.70
2018-07-31T17:39:10.225Z,6.10
2018-07-31T17:40:10.227Z,8.60
2018-07-31T17:41:11.204Z,5.70
2018-07-31T17:42:10.208Z,8.20
2018-07-31T17:43:10.184Z,9.10
2018-07-31T17:44:10.263Z,7.20
2018-07-31T17:45:10.213Z,6.40
2018-07-31T17:46:10.184Z,5.80
2018-07-31T17:47:10.185Z,8.20
2018-07-31T17:48:10.733Z,7.40
2018-07-31T17:49:11.136Z,6.00
2018-07-31T17:50:10.221Z,8.60
2018-07-31T17:51:10.118Z,6.30
2018-07-31T17:52:11.184Z,7.40
2018-07-31T17:53:10.214Z,8.20
2018-07-31T17:54:10.066Z,8.30
2018-07-31T17:55:10.146Z,7.70
2018-07-31T17:56:10.055Z,6.40
2018-07-31T17:57:10.095Z,6.40
2018-07-31T17:58:11.116Z,7.10
2018-07-31T17:59:10.013Z,6.10
2018-07-31T18:00:10.105Z,6.80
2018-07-31T18:01:09.999Z,6.10
2018-07-31T18:02:11.823Z,6.20
2018-07-31T18:03:10.673Z,6.70
2018-07-31T18:04:09.980Z,6.00
2018-07-31T18:05:09.954Z,6.30
2018-07-31T18:06:09.954Z,6.10
2018-07-31T18:07:09.965Z,5.80
2018-07-31T18:08:09.947Z,6.20
2018-07-31T18:09:09.918Z,6.30
2018-07-31T18:10:10.724Z,5.90
2018-07-31T18:11:09.892Z,6.80
2018-07-31T18:12:09.972Z,6.40
2018-07-31T18:13:09.901Z,5.90
2018-07-31T18:14:09.941Z,6.90
2018-07-31T18:15:09.843Z,5.80
2018-07-31T18:16:09.881Z,6.00
2018-07-31T18:17:09.824Z,6.30
2018-07-31T18:18:09.872Z,6.30
2018-07-31T18:19:09.840Z,6.10
2018-07-31T18:20:09.813Z,5.90
2018-07-31T18:21:09.813Z,5.80
2018-07-31T18:22:10.768Z,6.00
2018-07-31T18:23:09.770Z,5.90
2018-07-31T18:24:10.717Z,6.30
2018-07-31T18:25:09.775Z,8.00
2018-07-31T18:26:09.730Z,6.30
2018-07-31T18:27:09.807Z,5.40
2018-07-31T18:28:09.749Z,6.90
2018-07-31T18:29:09.752Z,6.30
2018-07-31T18:30:09.687Z,5.50
2018-07-31T18:31:09.768Z,5.80
2018-07-31T18:32:09.680Z,6.30
2018-07-31T18:33:09.665Z,5.80
2018-07-31T18:34:09.649Z,6.30
2018-07-31T18:35:09.631Z,5.60
2018-07-31T18:36:09.652Z,5.70
2018-07-31T18:37:09.639Z,6.00
2018-07-31T18:38:10.177Z,5.90
2018-07-31T18:39:10.590Z,6.10
2018-07-31T18:40:10.178Z,5.90
2018-07-31T18:41:09.596Z,6.10
2018-07-31T18:42:09.631Z,6.50
2018-07-31T18:43:09.614Z,6.40
2018-07-31T18:44:09.598Z,6.60
2018-07-31T18:45:10.204Z,6.80
2018-07-31T18:46:10.265Z,5.80
2018-07-31T18:47:09.572Z,6.00
2018-07-31T18:48:09.554Z,6.50
2018-07-31T18:49:09.533Z,6.30
2018-07-31T18:50:09.482Z,7.50
2018-07-31T18:51:09.542Z,6.00
2018-07-31T18:52:09.464Z,7.10
2018-07-31T18:53:09.458Z,6.00
2018-07-31T18:54:09.442Z,5.80
2018-07-31T18:55:11.198Z,6.00
2018-07-31T18:56:10.189Z,6.10
2018-07-31T18:57:09.409Z,6.50
2018-07-31T18:58:09.404Z,6.20
2018-07-31T18:59:09.379Z,6.10
2018-07-31T19:00:09.375Z,5.80
2018-07-31T19:01:09.432Z,6.60
2018-07-31T19:02:09.408Z,6.40
2018-07-31T19:03:10.202Z,7.70
2018-07-31T19:04:09.331Z,7.20
2018-07-31T19:05:09.323Z,5.60
2018-07-31T19:06:09.307Z,5.70